Time;durP1;ratioP1;P1;durP2;ratioP2;P2;SDS_P1;SDS_P2;PMS_P1;PMS_P2;Temp;Humidity;BMP_temperature;BMP_pressure;BME280_temperature;BME280_humidity;BME280_pressure;Samples;Min_cycle;Max_cycle;Signal;HPM_P1;HPM_P2
2022/07/26 00:00:12;;;;;;;2.35;0.95;;;;;;;20.32;54.89;100701.44;4939009;28;20058;-67
2022/07/26 00:02:37;;;;;;;3.75;1.10;;;;;;;20.24;55.48;100694.34;4971778;28;20029;-66
2022/07/26 00:05:03;;;;;;;3.83;0.95;;;;;;;20.31;55.06;100699.75;4973107;28;20374;-67
2022/07/26 00:07:29;;;;;;;0.63;0.63;;;;;;;20.18;55.48;100691.66;4970097;28;20088;-66
2022/07/26 00:09:54;;;;;;;3.15;0.90;;;;;;;20.12;55.95;100687.91;4957000;28;20488;-68
2022/07/26 00:12:19;;;;;;;1.88;1.20;;;;;;;20.23;55.69;100698.09;4955931;28;20096;-66
2022/07/26 00:14:45;;;;;;;1.40;0.80;;;;;;;20.08;55.99;100684.81;4962137;28;20018;-69
2022/07/26 00:17:10;;;;;;;1.60;0.77;;;;;;;20.05;56.09;100685.22;4954307;28;20065;-66
2022/07/26 00:19:36;;;;;;;1.95;0.80;;;;;;;20.04;56.35;100688.09;4956711;28;20934;-67
2022/07/26 00:24:45;;;;;;;;;;;;;;;20.03;56.72;100694.50;4978508;28;20166;-68
2022/07/26 00:27:10;;;;;;;5.10;0.87;;;;;;;20.06;56.34;100686.03;4961792;28;20599;-67
2022/07/26 00:29:36;;;;;;;3.03;1.08;;;;;;;20.01;56.66;100693.84;4955618;28;20019;-68
2022/07/26 00:32:01;;;;;;;1.27;0.65;;;;;;;19.94;56.81;100693.00;4940739;28;20268;-67
2022/07/26 00:34:27;;;;;;;3.13;0.73;;;;;;;19.89;56.99;100699.81;4942835;28;21044;-67
2022/07/26 00:36:52;;;;;;;2.65;1.10;;;;;;;19.85;57.39;100695.84;4953483;28;20018;-67
2022/07/26 00:39:17;;;;;;;2.95;1.10;;;;;;;19.86;57.50;100697.53;4950103;28;20971;-67
2022/07/26 00:41:43;;;;;;;2.88;1.20;;;;;;;19.86;57.35;100688.66;4955749;28;20266;-67
2022/07/26 00:44:08;;;;;;;1.65;1.00;;;;;;;19.79;57.88;100693.13;4965936;28;20016;-69
2022/07/26 00:46:34;;;;;;;2.40;1.00;;;;;;;19.75;57.91;100698.06;4966737;28;20079;-69
2022/07/26 00:48:59;;;;;;;1.77;1.10;;;;;;;19.72;58.17;100685.84;4961837;28;20848;-68
2022/07/26 00:51:25;;;;;;;1.13;1.00;;;;;;;19.68;58.24;100695.31;4941575;28;20064;-67
2022/07/26 00:53:50;;;;;;;5.38;1.10;;;;;;;19.67;58.37;100692.84;4960571;28;20921;-68
2022/07/26 00:56:16;;;;;;;4.75;0.90;;;;;;;19.63;58.40;100702.31;4959668;28;20932;-68
2022/07/26 00:58:42;;;;;;;3.10;0.80;;;;;;;19.58;59.00;100704.78;4957146;28;21024;-67
2022/07/26 01:01:07;;;;;;;4.35;1.02;;;;;;;19.56;59.01;100697.75;4958516;28;20014;-67
2022/07/26 01:03:33;;;;;;;2.85;1.17;;;;;;;19.53;59.36;100706.19;4961043;28;20586;-67
2022/07/26 01:05:58;;;;;;;5.18;1.17;;;;;;;19.50;59.43;100703.06;4975526;28;20015;-67
2022/07/26 01:08:24;;;;;;;2.90;0.80;;;;;;;19.44;59.83;100696.63;4985219;28;20193;-69
2022/07/26 01:10:49;;;;;;;1.48;0.93;;;;;;;19.39;60.40;100688.34;4931993;28;20351;-67
2022/07/26 01:13:19;;;;;;;2.55;0.90;;;;;;;19.36;60.57;100697.63;4937368;28;20539;-67
2022/07/26 01:15:44;;;;;;;1.95;0.80;;;;;;;19.42;60.65;100698.69;4944983;28;20895;-67
2022/07/26 01:18:10;;;;;;;4.45;1.05;;;;;;;19.45;59.99;100700.97;4930225;28;20034;-65
2022/07/26 01:20:35;;;;;;;3.83;1.02;;;;;;;19.42;60.42;100698.69;4948668;28;20017;-67
2022/07/26 01:23:01;;;;;;;2.90;1.27;;;;;;;19.44;60.49;100695.81;4935981;28;20026;-67
2022/07/26 01:25:30;;;;;;;2.80;1.02;;;;;;;19.34;60.67;100693.47;4948169;28;20018;-68
2022/07/26 01:27:55;;;;;;;3.75;1.20;;;;;;;19.30;60.86;100692.22;4987658;28;20042;-67
2022/07/26 01:30:21;;;;;;;3.03;0.90;;;;;;;19.32;60.75;100692.81;4954522;28;20083;-67
2022/07/26 01:32:46;;;;;;;6.03;1.08;;;;;;;19.25;60.80;100694.63;4987548;28;20006;-67
2022/07/26 01:35:12;;;;;;;5.10;1.30;;;;;;;19.28;61.14;100696.94;4956023;28;20730;-68
2022/07/26 01:37:37;;;;;;;2.15;1.10;;;;;;;19.21;61.19;100697.72;4985664;28;20094;-68
2022/07/26 01:40:03;;;;;;;3.33;1.05;;;;;;;19.27;60.73;100695.28;4974353;28;20009;-68
2022/07/26 01:42:28;;;;;;;2.25;0.98;;;;;;;19.21;61.02;100700.41;4951860;28;20021;-67
2022/07/26 01:44:54;;;;;;;1.48;1.02;;;;;;;19.11;61.44;100707.16;4978055;28;20175;-68
2022/07/26 01:47:19;;;;;;;3.25;1.00;;;;;;;19.00;61.63;100706.63;4959776;28;20044;-68
2022/07/26 01:49:45;;;;;;;6.55;1.05;;;;;;;18.99;62.17;100707.63;4989764;28;20918;-68
2022/07/26 01:52:10;;;;;;;1.38;0.90;;;;;;;19.01;61.94;100712.84;4988807;28;20427;-67
2022/07/26 01:54:35;;;;;;;4.07;1.27;;;;;;;18.99;61.91;100710.31;4989853;28;20018;-67
2022/07/26 01:57:01;;;;;;;1.02;0.93;;;;;;;18.95;62.11;100716.28;4970430;28;20022;-67
2022/07/26 01:59:26;;;;;;;1.58;0.93;;;;;;;19.02;61.87;100717.16;4977183;28;20423;-68
2022/07/26 02:01:52;;;;;;;4.13;1.30;;;;;;;19.03;62.12;100714.28;4969520;28;20384;-68
2022/07/26 02:07:01;;;;;;;;;;;;;;;19.09;62.27;100726.09;4978878;28;20249;-69
2022/07/26 02:09:26;;;;;;;2.47;1.00;;;;;;;19.12;61.91;100717.69;4976939;28;20722;-67
2022/07/26 02:11:52;;;;;;;2.97;0.98;;;;;;;19.13;61.52;100730.03;4984147;28;20426;-67
2022/07/26 02:14:17;;;;;;;3.88;1.17;;;;;;;19.10;62.08;100727.75;4976280;28;20061;-66
2022/07/26 02:16:43;;;;;;;2.20;1.00;;;;;;;18.97;62.30;100730.34;4976972;28;20317;-67
2022/07/26 02:19:08;;;;;;;1.88;0.90;;;;;;;19.01;62.28;100731.63;4971187;28;20761;-67
2022/07/26 02:21:34;;;;;;;4.13;1.00;;;;;;;18.99;62.64;100728.28;4987650;28;19998;-67
2022/07/26 02:23:59;;;;;;;1.27;1.00;;;;;;;18.98;62.82;100732.81;4971259;28;20056;-67
2022/07/26 02:26:25;;;;;;;2.10;1.00;;;;;;;18.96;63.23;100740.22;4987523;28;20216;-67
2022/07/26 02:28:50;;;;;;;1.10;1.00;;;;;;;18.83;63.39;100727.47;4953362;28;20084;-67
2022/07/26 02:31:16;;;;;;;2.20;1.00;;;;;;;18.81;63.85;100736.72;4984546;28;20006;-68
2022/07/26 02:33:41;;;;;;;2.45;1.15;;;;;;;18.91;63.59;100739.13;4972166;28;20021;-67
2022/07/26 02:36:07;;;;;;;4.30;1.10;;;;;;;18.91;63.41;100741.81;4969059;28;20018;-67
2022/07/26 02:38:32;;;;;;;1.80;1.15;;;;;;;18.85;63.98;100743.38;4944223;28;20021;-67
2022/07/26 02:40:57;;;;;;;4.00;1.10;;;;;;;18.80;64.07;100745.81;4983669;28;20010;-69
2022/07/26 02:43:23;;;;;;;4.88;1.30;;;;;;;18.81;64.18;100742.94;4973152;28;20017;-66
2022/07/26 02:45:48;;;;;;;2.08;1.35;;;;;;;18.82;64.34;100752.63;4952577;28;20243;-67
2022/07/26 02:48:14;;;;;;;5.85;1.30;;;;;;;18.85;64.30;100752.28;4934739;28;20552;-68
2022/07/26 02:50:39;;;;;;;4.22;1.30;;;;;;;18.82;64.60;100751.81;4955639;28;20524;-67
2022/07/26 02:53:05;;;;;;;4.07;1.45;;;;;;;18.84;64.39;100753.28;4970584;28;20980;-68
2022/07/26 02:55:30;;;;;;;2.92;1.30;;;;;;;18.83;64.46;100750.78;4982887;28;20029;-67
2022/07/26 02:57:55;;;;;;;2.05;1.13;;;;;;;18.86;64.76;100753.09;4955338;28;20010;-68
2022/07/26 03:00:22;;;;;;;2.38;1.33;;;;;;;18.92;64.13;100746.16;4971393;28;20911;-67
2022/07/26 03:02:49;;;;;;;8.57;1.70;;;;;;;18.78;64.71;100743.34;4971028;28;20010;-67
2022/07/26 03:05:15;;;;;;;3.67;1.52;;;;;;;18.69;65.06;100749.81;4972819;28;20850;-68
2022/07/26 03:07:40;;;;;;;4.72;1.20;;;;;;;18.64;65.21;100749.56;4948082;28;20028;-68
2022/07/26 03:10:06;;;;;;;7.03;1.70;;;;;;;18.75;65.26;100751.72;4977924;28;20029;-67
2022/07/26 03:12:32;;;;;;;3.08;1.70;;;;;;;18.74;65.24;100752.78;4971729;28;20059;-68
2022/07/26 03:14:57;;;;;;;6.25;1.80;;;;;;;18.77;65.24;100749.72;4987118;28;20669;-68
2022/07/26 03:17:22;;;;;;;4.30;1.40;;;;;;;18.70;65.44;100752.31;4953050;28;20554;-66
2022/07/26 03:19:48;;;;;;;4.30;1.40;;;;;;;18.72;65.51;100760.16;4976618;28;20018;-68
2022/07/26 03:22:13;;;;;;;8.35;1.75;;;;;;;18.74;65.35;100759.97;4970340;28;20446;-66
2022/07/26 03:24:39;;;;;;;3.33;1.25;;;;;;;18.78;65.44;100756.75;4977706;28;21076;-67
2022/07/26 03:27:04;;;;;;;4.22;1.50;;;;;;;18.66;65.51;100761.75;4970966;28;20367;-67
2022/07/26 03:29:30;;;;;;;4.25;1.65;;;;;;;18.75;65.40;100759.78;4991672;28;20547;-68
2022/07/26 03:31:55;;;;;;;4.03;1.45;;;;;;;18.74;65.63;100763.50;4953178;28;20015;-67
2022/07/26 03:34:20;;;;;;;3.75;1.60;;;;;;;18.66;66.10;100758.25;4990280;28;20483;-67
2022/07/26 03:36:46;;;;;;;6.30;1.50;;;;;;;18.73;65.95;100772.56;4969457;28;20401;-65
2022/07/26 03:39:11;;;;;;;7.25;1.63;;;;;;;18.69;66.14;100760.53;4998519;28;20017;-67
2022/07/26 03:41:37;;;;;;;4.75;1.52;;;;;;;18.75;66.06;100764.31;4976309;28;20118;-66
2022/07/26 03:44:02;;;;;;;8.00;1.75;;;;;;;18.62;66.54;100775.72;4989887;28;20020;-67
2022/07/26 03:46:28;;;;;;;5.20;1.80;;;;;;;18.58;66.82;100769.91;4978505;28;20424;-67
2022/07/26 03:48:53;;;;;;;5.53;2.08;;;;;;;18.76;66.16;100768.66;4992661;28;20041;-68
2022/07/26 03:51:19;;;;;;;4.40;1.50;;;;;;;18.75;66.08;100773.19;4975039;28;20788;-67
2022/07/26 03:53:44;;;;;;;4.10;1.42;;;;;;;18.79;66.83;100769.09;4955988;28;20021;-67
2022/07/26 03:56:30;;;;;;;4.43;1.80;;;;;;;18.72;66.75;100765.53;4955434;28;20492;-68
2022/07/26 03:58:57;;;;;;;5.68;1.50;;;;;;;18.79;66.81;100777.16;4969441;28;20006;-67
2022/07/26 04:01:22;;;;;;;5.32;1.80;;;;;;;18.79;66.77;100779.81;4952748;28;21280;-67
2022/07/26 04:03:48;;;;;;;7.13;2.03;;;;;;;18.86;66.36;100774.53;4952199;28;20447;-67
2022/07/26 04:06:13;;;;;;;7.03;1.50;;;;;;;18.80;66.86;100778.00;4976174;28;20564;-67
2022/07/26 04:08:39;;;;;;;7.78;2.17;;;;;;;18.68;66.84;100781.16;4976289;28;20363;-64
2022/07/26 04:11:04;;;;;;;5.43;1.58;;;;;;;18.79;67.05;100768.28;4971223;28;20251;-67
2022/07/26 04:13:30;;;;;;;4.53;1.80;;;;;;;18.79;67.07;100779.00;4945456;28;20471;-65
2022/07/26 04:15:55;;;;;;;4.65;1.90;;;;;;;18.86;66.81;100782.59;4984474;28;20523;-67
2022/07/26 04:18:21;;;;;;;8.10;2.05;;;;;;;18.82;67.20;100781.31;4989898;28;20041;-67
2022/07/26 04:20:46;;;;;;;5.38;1.85;;;;;;;18.78;67.49;100790.75;4992236;28;20002;-67
2022/07/26 04:23:12;;;;;;;7.95;2.60;;;;;;;18.66;67.92;100779.69;4966531;28;20004;-67
2022/07/26 04:25:37;;;;;;;5.10;2.10;;;;;;;18.73;67.89;100788.63;5009415;28;20014;-68
2022/07/26 04:28:03;;;;;;;4.72;1.83;;;;;;;18.70;68.08;100784.47;4971368;28;20045;-66
2022/07/26 04:30:28;;;;;;;4.82;2.10;;;;;;;18.76;67.90;100782.06;4985630;28;20009;-67
2022/07/26 04:32:54;;;;;;;4.55;2.38;;;;;;;18.74;68.30;100784.94;4953581;28;20356;-66
2022/07/26 04:35:19;;;;;;;5.95;2.00;;;;;;;18.70;68.08;100780.97;4979749;28;20017;-67
2022/07/26 04:37:45;;;;;;;4.32;2.00;;;;;;;18.76;68.40;100790.94;4952316;28;20021;-65
2022/07/26 04:40:14;;;;;;;7.32;2.15;;;;;;;18.81;68.43;100782.31;4993508;28;20009;-67
2022/07/26 04:42:39;;;;;;;6.28;2.25;;;;;;;18.81;68.31;100785.84;4983667;28;20032;-67
2022/07/26 04:45:05;;;;;;;10.15;2.38;;;;;;;18.92;67.85;100786.38;4991890;28;21013;-66
2022/07/26 04:47:31;;;;;;;6.35;2.42;;;;;;;18.81;68.23;100787.66;4940636;28;20451;-67
2022/07/26 04:49:56;;;;;;;8.80;2.45;;;;;;;18.71;68.55;100787.97;4986703;28;20211;-67
2022/07/26 04:52:21;;;;;;;5.38;2.10;;;;;;;18.77;68.61;100783.72;4942658;28;20010;-67
2022/07/26 04:54:47;;;;;;;6.53;2.42;;;;;;;18.76;68.73;100788.25;4976318;28;20181;-66
2022/07/26 04:57:12;;;;;;;6.43;2.30;;;;;;;18.82;68.33;100787.47;4957927;28;20017;-65
2022/07/26 04:59:38;;;;;;;9.45;2.50;;;;;;;18.78;68.56;100786.22;4992159;28;20671;-66
2022/07/26 05:02:03;;;;;;;6.13;2.10;;;;;;;18.73;68.55;100788.63;4972269;28;20017;-64
2022/07/26 05:04:28;;;;;;;7.55;2.33;;;;;;;18.73;68.87;100793.16;4993776;28;20105;-67
2022/07/26 05:06:56;;;;;;;6.70;2.30;;;;;;;18.77;68.68;100792.59;4979668;28;20063;-64
2022/07/26 05:09:21;;;;;;;7.82;2.63;;;;;;;18.93;68.01;100793.41;5003470;28;20102;-66
2022/07/26 05:11:46;;;;;;;6.47;2.13;;;;;;;18.85;68.17;100795.16;5013849;28;20873;-67
2022/07/26 05:14:12;;;;;;;7.88;2.40;;;;;;;18.75;68.56;100794.63;4966470;28;20024;-67
2022/07/26 05:16:37;;;;;;;5.90;2.55;;;;;;;18.71;69.21;100794.19;4981101;28;20387;-67
2022/07/26 05:19:03;;;;;;;7.85;2.33;;;;;;;18.75;68.95;100788.44;4954489;28;20475;-67
2022/07/26 05:21:28;;;;;;;7.80;2.50;;;;;;;18.85;68.48;100784.44;4959343;28;20338;-67
2022/07/26 05:23:54;;;;;;;6.63;2.20;;;;;;;18.87;68.51;100785.09;4939144;28;20021;-66
2022/07/26 05:26:19;;;;;;;11.07;2.58;;;;;;;18.76;68.79;100785.56;4991045;28;20256;-67
2022/07/26 05:28:45;;;;;;;8.90;2.60;;;;;;;18.71;69.38;100798.69;4963835;28;20444;-64
2022/07/26 05:31:10;;;;;;;12.02;2.55;;;;;;;18.68;69.69;100793.72;4991070;28;20022;-67
2022/07/26 05:33:36;;;;;;;5.55;2.50;;;;;;;18.75;69.47;100799.97;4956102;28;20036;-65
2022/07/26 05:36:01;;;;;;;6.07;2.40;;;;;;;18.71;69.56;100801.38;4989662;28;20014;-67
2022/07/26 05:38:27;;;;;;;6.65;2.42;;;;;;;18.73;69.88;100801.19;4963250;28;20072;-67
2022/07/26 05:40:52;;;;;;;7.38;2.55;;;;;;;18.73;69.97;100798.50;5005632;28;20429;-67
2022/07/26 05:43:18;;;;;;;10.60;2.90;;;;;;;18.75;69.88;100796.50;4987084;28;20914;-67
2022/07/26 05:45:43;;;;;;;8.73;3.45;;;;;;;18.77;69.91;100795.28;4977160;28;20014;-68
2022/07/26 05:48:08;;;;;;;8.75;2.70;;;;;;;18.84;69.57;100806.91;4958310;28;20845;-66
2022/07/26 05:50:34;;;;;;;6.60;2.65;;;;;;;18.86;69.59;100801.34;4970962;28;20002;-67
2022/07/26 05:52:59;;;;;;;7.07;2.58;;;;;;;18.84;70.16;100801.53;4940328;28;20864;-66
2022/07/26 05:55:25;;;;;;;6.80;2.90;;;;;;;18.87;69.98;100806.56;4971238;28;20384;-67
2022/07/26 05:57:51;;;;;;;10.80;3.15;;;;;;;18.88;69.65;100807.38;4973022;28;20227;-68
2022/07/26 06:00:16;;;;;;;10.30;2.85;;;;;;;18.89;69.64;100806.34;4966928;28;20010;-67
2022/07/26 06:02:42;;;;;;;10.70;2.65;;;;;;;18.93;69.90;100809.50;4991272;28;20338;-68
2022/07/26 06:05:07;;;;;;;9.65;3.00;;;;;;;18.94;69.84;100811.13;4972394;28;20104;-67
2022/07/26 06:07:33;;;;;;;8.73;3.53;;;;;;;18.93;70.17;100814.88;4997628;28;20421;-68
2022/07/26 06:09:58;;;;;;;15.05;3.15;;;;;;;18.91;70.13;100807.00;4966766;28;20036;-67
2022/07/26 06:12:24;;;;;;;8.18;2.83;;;;;;;18.96;70.67;100803.75;4974575;28;20755;-67
2022/07/26 06:14:49;;;;;;;9.73;3.17;;;;;;;18.99;70.00;100816.78;4959524;28;20043;-64
2022/07/26 06:17:15;;;;;;;7.63;3.20;;;;;;;18.97;70.03;100822.34;4969155;28;20025;-67
2022/07/26 06:19:40;;;;;;;7.97;3.08;;;;;;;19.08;69.55;100814.78;4932944;28;20022;-65
2022/07/26 06:22:06;;;;;;;12.25;3.50;;;;;;;19.10;69.26;100810.91;4932260;28;20134;-68
2022/07/26 06:24:31;;;;;;;8.30;2.80;;;;;;;18.93;70.03;100814.88;4952107;28;20011;-66
2022/07/26 06:26:56;;;;;;;13.05;3.40;;;;;;;18.86;70.65;100812.91;4930848;28;20408;-67
2022/07/26 06:29:22;;;;;;;9.07;3.35;;;;;;;18.88;70.82;100829.66;4930247;28;20096;-67
2022/07/26 06:31:47;;;;;;;9.32;3.88;;;;;;;18.75;71.23;100824.13;4933436;28;20940;-68
2022/07/26 06:34:13;;;;;;;6.07;3.20;;;;;;;18.85;71.16;100835.38;4939913;28;20022;-66
2022/07/26 06:36:39;;;;;;;10.48;3.55;;;;;;;18.79;71.07;100836.13;4937212;28;20025;-67
2022/07/26 06:39:04;;;;;;;10.35;3.50;;;;;;;18.96;70.73;100842.13;4981706;28;20013;-68
2022/07/26 06:41:29;;;;;;;7.47;2.95;;;;;;;18.93;70.86;100836.31;4960080;28;20002;-68
2022/07/26 06:43:55;;;;;;;6.65;3.08;;;;;;;19.00;70.54;100839.91;4964889;28;20819;-68
2022/07/26 06:46:20;;;;;;;10.93;3.28;;;;;;;19.01;70.89;100845.06;4968913;28;20014;-67
2022/07/26 06:48:46;;;;;;;9.05;3.15;;;;;;;19.03;70.63;100845.69;4973419;28;20899;-67
2022/07/26 06:51:12;;;;;;;9.40;3.00;;;;;;;19.06;70.96;100849.84;4936518;28;20113;-66
2022/07/26 06:53:37;;;;;;;9.60;3.80;;;;;;;19.10;70.77;100843.09;4973007;28;20412;-67
2022/07/26 06:56:03;;;;;;;8.15;3.10;;;;;;;19.21;70.95;100845.25;4952079;28;20441;-65
2022/07/26 06:58:28;;;;;;;8.23;3.33;;;;;;;19.30;70.57;100854.00;4970789;28;20169;-67
2022/07/26 07:00:54;;;;;;;9.23;3.53;;;;;;;19.40;69.56;100848.31;4955980;28;20510;-66
2022/07/26 07:03:19;;;;;;;15.85;3.35;;;;;;;19.39;69.77;100846.69;4971480;28;20491;-67
2022/07/26 07:05:45;;;;;;;7.40;2.80;;;;;;;19.49;69.90;100855.22;4954652;28;20397;-69
2022/07/26 07:08:11;;;;;;;7.32;3.35;;;;;;;19.46;69.77;100857.47;4962046;28;20026;-68
2022/07/26 07:10:36;;;;;;;10.73;3.75;;;;;;;19.46;69.60;100852.09;4993490;28;20553;-67
2022/07/26 07:13:02;;;;;;;8.85;3.70;;;;;;;19.56;69.50;100853.44;4986675;28;20042;-67
2022/07/26 07:15:27;;;;;;;9.35;3.95;;;;;;;19.62;69.40;100848.31;4960989;28;20859;-68
2022/07/26 07:17:52;;;;;;;9.00;3.80;;;;;;;19.59;69.92;100854.06;4954098;28;20073;-68
2022/07/26 07:20:18;;;;;;;10.80;3.70;;;;;;;19.77;68.78;100862.50;4959006;28;20390;-67
2022/07/26 07:22:43;;;;;;;8.77;3.58;;;;;;;19.73;68.65;100859.34;4959558;28;20317;-68
2022/07/26 07:25:09;;;;;;;10.73;3.85;;;;;;;19.81;68.58;100868.31;4977320;28;20247;-69
2022/07/26 07:27:34;;;;;;;9.50;3.95;;;;;;;19.85;68.61;100867.72;4940704;28;20046;-69
2022/07/26 07:30:00;;;;;;;8.65;3.75;;;;;;;19.76;69.31;100862.69;4997342;28;20329;-69
2022/07/26 07:32:25;;;;;;;10.05;4.20;;;;;;;19.98;68.94;100875.06;4960056;28;20036;-68
2022/07/26 07:34:50;;;;;;;11.68;4.97;;;;;;;20.08;67.93;100872.03;5002054;28;20365;-69
2022/07/26 07:37:16;;;;;;;10.30;4.85;;;;;;;20.08;68.11;100872.03;4968044;28;19994;-67
2022/07/26 07:39:42;;;;;;;9.80;4.38;;;;;;;20.08;67.82;100875.56;4972534;28;20401;-67
2022/07/26 07:42:07;;;;;;;8.95;4.78;;;;;;;20.18;67.44;100872.50;4954729;28;20021;-65
2022/07/26 07:44:32;;;;;;;7.05;4.50;;;;;;;20.35;67.20;100872.19;4972027;28;20350;-67
2022/07/26 07:46:58;;;;;;;10.40;5.07;;;;;;;20.17;67.32;100876.22;4947535;28;20010;-66
2022/07/26 07:49:23;;;;;;;8.40;4.88;;;;;;;20.14;68.01;100883.84;4965041;28;20010;-67
2022/07/26 07:51:49;;;;;;;10.82;5.25;;;;;;;20.11;68.05;100879.69;4919620;28;20041;-66
2022/07/26 07:54:14;;;;;;;12.55;5.80;;;;;;;19.99;68.27;100881.25;4945726;28;20010;-67
2022/07/26 07:56:41;;;;;;;7.72;5.35;;;;;;;19.93;68.75;100880.19;4948284;28;20220;-68
2022/07/26 07:59:06;;;;;;;12.60;5.70;;;;;;;19.84;69.03;100892.09;4951579;28;20010;-67
2022/07/26 08:01:32;;;;;;;9.52;5.70;;;;;;;19.86;69.26;100880.13;4986064;28;20151;-68
2022/07/26 08:03:57;;;;;;;12.77;6.63;;;;;;;19.93;69.36;100882.88;4950169;28;20131;-65
2022/07/26 08:06:23;;;;;;;10.90;6.30;;;;;;;19.99;68.48;100882.09;4981358;28;20676;-67
2022/07/26 08:08:48;;;;;;;12.13;7.30;;;;;;;19.88;68.71;100894.22;4931217;28;20103;-65
2022/07/26 08:11:13;;;;;;;9.85;7.30;;;;;;;19.80;69.37;100883.59;4965459;28;20231;-67
2022/07/26 08:13:39;;;;;;;12.38;7.43;;;;;;;19.98;69.10;100883.13;4953497;28;20703;-66
2022/07/26 08:16:04;;;;;;;10.38;6.82;;;;;;;20.12;68.70;100889.41;4938478;28;20260;-68
2022/07/26 08:18:30;;;;;;;19.13;8.15;;;;;;;20.20;68.22;100889.25;4948668;28;20370;-67
2022/07/26 08:20:55;;;;;;;11.18;7.75;;;;;;;20.29;67.65;100881.03;4964548;28;20010;-67
2022/07/26 08:23:21;;;;;;;15.10;7.53;;;;;;;20.27;67.65;100896.53;4967733;28;20218;-66
2022/07/26 08:25:46;;;;;;;15.13;7.60;;;;;;;20.34;67.92;100889.34;4949047;28;20282;-67
2022/07/26 08:28:12;;;;;;;10.63;7.65;;;;;;;20.40;67.42;100886.72;4985395;28;20041;-68
2022/07/26 08:30:37;;;;;;;15.35;7.28;;;;;;;20.17;68.16;100900.41;4966377;28;20389;-67
2022/07/26 08:33:03;;;;;;;13.43;7.10;;;;;;;20.24;68.26;100893.22;4988099;28;20099;-67
2022/07/26 08:35:28;;;;;;;16.67;8.20;;;;;;;20.20;68.17;100901.88;4983052;28;20117;-67
2022/07/26 08:37:54;;;;;;;16.83;7.10;;;;;;;20.30;68.19;100896.16;4976577;28;20405;-66
2022/07/26 08:40:19;;;;;;;12.98;8.15;;;;;;;20.33;67.44;100899.25;4954360;28;20002;-66
2022/07/26 08:42:52;;;;;;;13.93;7.47;;;;;;;20.42;67.65;100899.94;4967159;28;20461;-66
2022/07/26 08:45:24;;;;;;;10.63;7.25;;;;;;;20.52;67.10;100900.41;4963750;28;20036;-67
2022/07/26 08:47:49;;;;;;;9.93;7.43;;;;;;;20.73;66.71;100906.75;4949010;28;20388;-68
2022/07/26 08:50:15;;;;;;;13.32;7.25;;;;;;;20.80;66.01;100915.69;4949448;28;20047;-67
2022/07/26 08:52:40;;;;;;;14.00;7.03;;;;;;;20.87;65.48;100905.78;4984636;28;20071;-68
2022/07/26 08:55:06;;;;;;;14.30;7.13;;;;;;;20.69;66.55;100918.94;4966132;28;20729;-67
2022/07/26 08:57:31;;;;;;;12.10;7.15;;;;;;;20.86;65.97;100911.34;4983595;28;20729;-68
2022/07/26 09:00:17;;;;;;;14.93;8.02;;;;;;;20.85;65.55;100907.81;4970747;28;20021;-67
2022/07/26 09:02:43;;;;;;;15.88;7.28;;;;;;;20.86;66.28;100912.16;4950746;28;20356;-67
2022/07/26 09:05:08;;;;;;;9.95;7.00;;;;;;;20.91;65.68;100909.72;4950001;28;20037;-67
2022/07/26 09:07:34;;;;;;;11.65;6.63;;;;;;;20.93;66.26;100914.91;4970636;28;20034;-68
2022/07/26 09:10:01;;;;;;;13.38;7.20;;;;;;;20.91;65.91;100912.41;4965197;28;20629;-68
2022/07/26 09:12:28;;;;;;;11.30;7.15;;;;;;;20.81;66.50;100913.81;4967721;28;20010;-66
2022/07/26 09:14:53;;;;;;;11.18;7.43;;;;;;;20.81;66.35;100921.88;4954723;28;20049;-69
2022/07/26 09:17:20;;;;;;;12.63;7.30;;;;;;;20.88;66.33;100915.50;4964578;28;20353;-69
2022/07/26 09:19:45;;;;;;;8.75;6.43;;;;;;;21.10;65.74;100920.75;4966221;28;20105;-67
2022/07/26 09:22:13;;;;;;;11.15;7.13;;;;;;;21.15;65.67;100920.97;4947976;28;20780;-67
2022/07/26 09:24:40;;;;;;;13.85;7.00;;;;;;;21.20;65.28;100921.19;4970001;28;20145;-68
2022/07/26 09:27:07;;;;;;;11.07;7.50;;;;;;;21.37;64.19;100923.50;4953012;28;20034;-66
2022/07/26 09:29:43;;;;;;;9.45;6.97;;;;;;;21.75;63.28;100926.47;4949488;28;20018;-66
2022/07/26 09:32:10;;;;;;;13.00;7.25;;;;;;;21.89;62.68;100924.63;4967703;28;20006;-66
2022/07/26 09:34:35;;;;;;;13.88;7.40;;;;;;;22.03;62.79;100927.31;4983692;28;20400;-68
2022/07/26 09:37:00;;;;;;;11.73;7.43;;;;;;;22.12;63.73;100918.81;4959621;28;20368;-68
2022/07/26 09:39:26;;;;;;;11.32;6.85;;;;;;;22.23;62.35;100917.34;4974634;28;20720;-67
2022/07/26 09:41:53;;;;;;;11.27;6.30;;;;;;;22.41;61.04;100915.91;4987090;28;20063;-67
2022/07/26 09:44:21;;;;;;;8.60;6.07;;;;;;;22.67;59.64;100928.44;4971551;28;20053;-67
2022/07/26 09:46:55;;;;;;;9.80;5.70;;;;;;;22.31;59.91;100924.38;4957100;28;20058;-65
2022/07/26 09:49:21;;;;;;;8.77;5.15;;;;;;;22.22;58.90;100915.66;4971842;28;20018;-67
2022/07/26 09:51:47;;;;;;;7.35;4.45;;;;;;;22.46;59.99;100919.63;4970570;28;20181;-66
2022/07/26 09:54:28;;;;;;;7.30;4.35;;;;;;;23.01;57.30;100922.94;4952912;28;20002;-65
2022/07/26 09:56:53;;;;;;;5.78;4.18;;;;;;;23.50;55.76;100926.81;4986585;28;20747;-66
2022/07/26 09:59:20;;;;;;;4.95;3.88;;;;;;;23.41;55.15;100931.66;4972056;28;20314;-67
2022/07/26 10:01:46;;;;;;;6.15;3.80;;;;;;;23.22;55.17;100932.63;4969413;28;20009;-65
2022/07/26 10:04:11;;;;;;;4.50;3.72;;;;;;;23.05;55.22;100929.56;4955028;28;20324;-68
2022/07/26 10:06:37;;;;;;;6.43;3.67;;;;;;;23.16;56.12;100926.22;4953352;28;20026;-67
2022/07/26 10:09:02;;;;;;;5.90;3.72;;;;;;;23.58;54.11;100940.06;4984445;28;20322;-68
2022/07/26 10:11:29;;;;;;;8.00;3.83;;;;;;;23.91;52.44;100930.09;4972330;28;20268;-67
2022/07/26 10:13:56;;;;;;;6.82;3.22;;;;;;;24.58;52.16;100921.31;4956768;28;20092;-67
2022/07/26 10:16:29;;;;;;;9.23;3.25;;;;;;;25.07;50.99;100924.06;4946499;28;20299;-68
2022/07/26 10:18:56;;;;;;;3.75;3.40;;;;;;;24.66;50.87;100932.69;4973346;28;20242;-67
2022/07/26 10:21:26;;;;;;;4.72;3.50;;;;;;;23.93;52.52;100926.13;4970338;28;20017;-64
2022/07/26 10:23:56;;;;;;;8.40;3.28;;;;;;;23.59;53.91;100912.03;4955183;28;20025;-68
2022/07/26 10:26:31;;;;;;;8.75;3.40;;;;;;;23.57;54.66;100924.91;4972202;28;20704;-68
2022/07/26 10:29:16;;;;;;;6.72;3.22;;;;;;;23.51;55.05;100923.09;4992202;28;20041;-68
2022/07/26 10:31:42;;;;;;;7.47;3.83;;;;;;;23.31;55.52;100915.13;4955948;28;20348;-68
2022/07/26 10:34:07;;;;;;;5.70;3.67;;;;;;;24.13;54.00;100911.59;4993430;28;20728;-68
2022/07/26 10:36:35;;;;;;;7.55;3.33;;;;;;;24.65;50.60;100922.91;4962554;28;20010;-67
2022/07/26 10:39:01;;;;;;;6.20;3.00;;;;;;;25.03;49.69;100921.00;4992189;28;20412;-68
2022/07/26 10:41:39;;;;;;;3.70;2.50;;;;;;;26.08;47.53;100923.41;4971620;28;20714;-68
2022/07/26 10:44:14;;;;;;;4.90;2.50;;;;;;;27.22;43.65;100911.13;4970110;28;20676;-67
2022/07/26 10:47:21;;;;;;;5.18;2.50;;;;;;;27.04;42.68;100904.00;4969379;28;20785;-67
2022/07/26 10:49:54;;;;;;;5.13;2.25;;;;;;;26.39;43.44;100905.91;4972280;28;20198;-68
2022/07/26 10:52:25;;;;;;;3.00;2.10;;;;;;;25.99;45.49;100912.88;5006765;28;20029;-67
2022/07/26 10:55:02;;;;;;;2.75;1.95;;;;;;;25.78;46.17;100918.84;5007630;28;20351;-68
2022/07/26 10:57:34;;;;;;;5.93;2.42;;;;;;;25.70;46.23;100918.16;4989081;28;20485;-68
2022/07/26 11:00:00;;;;;;;4.05;2.30;;;;;;;25.37;46.31;100918.69;4952617;28;20396;-65
2022/07/26 11:02:30;;;;;;;7.25;2.30;;;;;;;24.78;47.17;100915.72;4984943;28;20402;-68
2022/07/26 11:05:13;;;;;;;3.38;1.90;;;;;;;24.40;48.94;100916.75;4967272;28;20033;-68
2022/07/26 11:07:52;;;;;;;3.10;1.60;;;;;;;23.98;50.44;100928.16;4989156;28;20071;-67
2022/07/26 11:10:31;;;;;;;3.03;1.60;;;;;;;23.71;49.82;100924.81;4988153;28;20591;-68
2022/07/26 11:13:10;;;;;;;2.40;1.48;;;;;;;23.64;50.20;100924.88;4966702;28;20022;-67
2022/07/26 11:15:38;;;;;;;5.05;1.67;;;;;;;23.71;49.83;100928.34;4981912;28;20689;-67
2022/07/26 11:18:12;;;;;;;3.35;1.70;;;;;;;23.88;49.83;100925.94;4967158;28;20056;-67
2022/07/26 11:20:38;;;;;;;1.63;1.52;;;;;;;24.03;49.12;100925.63;4982289;28;20346;-66
2022/07/26 11:23:03;;;;;;;2.38;1.50;;;;;;;24.12;48.30;100926.16;5000992;28;20280;-67
2022/07/26 11:25:29;;;;;;;1.48;1.30;;;;;;;24.05;48.41;100922.69;4979980;28;20041;-67